EST,Max TemperatureF,Mean TemperatureF,Min TemperatureF,Max Dew PointF,MeanDew PointF,Min DewpointF,Max Humidity, Mean Humidity, Min Humidity, Max Sea Level PressureIn, Mean Sea Level PressureIn, Min Sea Level PressureIn, Max VisibilityMiles, Mean VisibilityMiles, Min VisibilityMiles, Max Wind SpeedMPH, Mean Wind SpeedMPH, Max Gust SpeedMPH,PrecipitationIn, CloudCover, Events, WindDirDegrees
2013-2-1,35,17,13,4,1,-3,59,48,37,,,,10,10,5,28,14,44,0.00,0,,294
2013-2-2,31,22,14,27,12,0,96,66,45,,,,10,7,1,18,3,30,0.02,5,Snow,179
2013-2-3,31,28,24,26,21,15,86,75,65,,,,10,4,0,41,19,61,0.00,7,Snow,285
2013-2-4,41,30,20,21,16,10,72,54,40,30.00,29.94,29.89,10,10,10,25,9,44,0.00,3,,195
2013-2-5,42,40,37,32,26,14,81,60,31,29.93,29.89,29.85,10,10,10,21,9,28,0.00,6,,270
2013-2-6,48,40,33,29,20,9,68,47,23,30.22,30.08,29.93,10,10,10,21,8,33,0.00,0,,288
2013-2-7,39,34,30,35,27,16,96,72,46,30.24,30.15,29.98,10,7,0,6,1,,0.03,5,Rain,168
2013-2-8,44,36,29,40,31,20,97,81,46,30.02,29.91,29.85,10,6,0,28,7,44,0.03,7,Fog-Rain-Snow,303
2013-2-9,48,38,27,20,7,-2,70,35,13,30.28,30.16,29.99,10,10,10,30,16,48,0.00,0,,319
2013-2-10,45,36,28,33,19,12,96,53,29,30.33,30.24,30.10,10,9,0,12,4,22,0.05,3,Rain-Snow,163
2013-2-11,58,46,34,48,37,20,95,69,32,30.09,30.00,29.96,10,9,0,29,9,43,0.06,5,Rain,223
2013-2-12,50,42,34,33,16,4,94,40,15,30.06,29.99,29.89,10,10,5,29,13,38,0.00,2,Rain,296
2013-2-13,43,37,32,40,33,26,97,90,77,29.90,29.72,29.58,10,5,0,23,4,40,0.22,8,Fog-Rain-Snow,262
2013-2-14,47,38,28,27,20,5,82,55,18,29.99,29.91,29.79,10,10,10,29,9,40,0.00,1,,281
2013-2-15,51,40,30,33,26,18,83,62,29,30.03,29.97,29.90,10,10,7,21,8,30,0.00,4,Rain,274
2013-2-16,29,24,18,22,15,5,77,66,47,29.94,29.83,29.75,10,9,2,20,11,38,0.00,7,Snow,325
2013-2-17,27,20,13,10,3,-2,74,48,31,30.09,29.94,29.82,10,8,1,31,17,52,0.00,4,Snow,298
2013-2-18,46,35,24,21,11,0,61,39,28,30.24,30.17,30.07,10,10,10,22,9,32,0.00,0,,194
2013-2-19,42,36,29,34,22,5,94,59,28,30.06,29.91,29.81,10,9,1,26,10,41,0.00,6,Rain-Snow,216
2013-2-20,38,31,24,10,0,-12,49,30,12,30.06,29.95,29.83,10,10,10,45,25,66,0.00,0,,293
2013-2-21,54,39,25,24,1,-18,67,25,7,30.18,30.08,30.01,10,10,2,21,7,29,0.04,1,Rain-Snow,267
2013-2-22,33,31,29,32,30,27,99,95,78,30.19,30.11,30.02,10,2,0,7,3,,0.13,8,Fog-Snow,147
2013-2-23,50,40,30,44,37,30,99,88,62,30.04,29.89,29.81,10,6,0,14,1,17,0.00,6,Fog-Rain,275
2013-2-24,48,41,34,37,23,14,78,51,30,30.01,29.91,29.81,10,10,10,22,11,31,0.00,2,,298
2013-2-25,37,32,27,22,20,16,76,62,47,30.08,30.02,29.98,10,10,10,8,4,,0.00,1,,141
2013-2-26,39,32,25,38,30,18,97,91,64,30.03,29.74,29.53,10,3,0,14,3,20,1.26,8,Fog-Rain-Snow,146
2013-2-27,47,40,33,33,27,16,88,67,30,29.74,29.67,29.57,10,10,1,30,15,38,0.00,6,Snow,270
2013-2-28,32,30,27,27,22,19,84,75,63,29.78,29.71,29.63,10,7,1,22,13,33,0.00,8,Snow,287